Time,TemperatureF,DewpointF,PressureIn,WindDirection,WindDirectionDegrees,WindSpeedMPH,WindSpeedGustMPH,Humidity,HourlyPrecipIn,Conditions,Clouds,dailyrainin,SoftwareType,DateUTC
2013-03-26 00:01:00,28.4,25.6,30.37,NNW,342,7.0,12.0,89,0.00,,,0.00,WeatherCatV1.02B3,2013-03-26 05:01:00,
2013-03-26 00:06:00,28.4,25.6,30.37,WNW,300,8.0,12.0,89,0.00,,,0.00,WeatherCatV1.02B3,2013-03-26 05:06:00,
2013-03-26 00:11:00,28.4,25.6,30.37,WNW,289,5.0,10.0,89,0.00,,,0.00,WeatherCatV1.02B3,2013-03-26 05:11:00,
2013-03-26 00:16:00,28.4,25.6,30.37,NW,304,3.0,4.0,89,0.00,,,0.00,WeatherCatV1.02B3,2013-03-26 05:16:00,
2013-03-26 00:21:00,28.4,25.6,30.37,NW,315,8.0,12.0,89,0.00,,,0.00,WeatherCatV1.02B3,2013-03-26 05:21:00,
2013-03-26 00:26:00,28.4,25.6,30.37,WNW,296,5.0,9.0,89,0.00,,,0.00,WeatherCatV1.02B3,2013-03-26 05:26:00,
2013-03-26 00:31:00,28.4,25.6,30.38,NNW,338,5.0,10.0,89,0.00,,,0.00,WeatherCatV1.02B3,2013-03-26 05:31:00,
2013-03-26 00:36:00,28.4,25.6,30.38,NNW,346,7.0,10.0,89,0.00,,,0.00,WeatherCatV1.02B3,2013-03-26 05:36:00,
2013-03-26 00:41:00,28.5,25.7,30.38,WSW,257,2.0,8.0,89,0.00,,,0.00,WeatherCatV1.02B3,2013-03-26 05:41:00,
2013-03-26 00:46:00,28.5,25.7,30.38,WNW,297,5.0,7.0,89,0.00,,,0.00,WeatherCatV1.02B3,2013-03-26 05:46:00,
2013-03-26 00:51:00,28.5,25.9,30.38,NW,321,7.0,11.0,90,0.00,,,0.00,WeatherCatV1.02B3,2013-03-26 05:51:00,
2013-03-26 00:56:00,28.5,25.7,30.38,NW,317,1.0,7.0,89,0.00,,,0.00,WeatherCatV1.02B3,2013-03-26 05:56:00,
2013-03-26 01:01:00,28.5,25.7,30.38,NW,317,6.0,7.0,89,0.00,,,0.00,WeatherCatV1.02B3,2013-03-26 06:01:00,
2013-03-26 01:06:00,28.5,25.7,30.38,WNW,301,4.0,7.0,89,0.00,,,0.00,WeatherCatV1.02B3,2013-03-26 06:06:00,
2013-03-26 01:11:00,28.5,25.9,30.38,NW,312,5.0,6.0,90,0.00,,,0.00,WeatherCatV1.02B3,2013-03-26 06:11:00,
2013-03-26 01:16:00,28.5,25.9,30.38,WNW,300,4.0,7.0,90,0.00,,,0.00,WeatherCatV1.02B3,2013-03-26 06:16:00,
2013-03-26 01:21:00,28.5,25.7,30.38,NNW,334,4.0,10.0,89,0.00,,,0.00,WeatherCatV1.02B3,2013-03-26 06:21:00,
2013-03-26 01:26:00,28.5,25.7,30.38,NNW,341,9.0,9.0,89,0.00,,,0.00,WeatherCatV1.02B3,2013-03-26 06:26:00,
2013-03-26 01:31:00,28.5,25.7,30.38,WNW,296,2.0,10.0,89,0.00,,,0.00,WeatherCatV1.02B3,2013-03-26 06:31:00,
2013-03-26 01:36:00,28.5,25.7,30.38,NW,315,7.0,8.0,89,0.00,,,0.00,WeatherCatV1.02B3,2013-03-26 06:36:00,
2013-03-26 01:41:00,28.5,25.7,30.38,West,281,4.0,7.0,89,0.00,,,0.00,WeatherCatV1.02B3,2013-03-26 06:41:00,
2013-03-26 01:46:00,28.5,25.7,30.38,NNW,327,7.0,11.0,89,0.00,,,0.00,WeatherCatV1.02B3,2013-03-26 06:46:00,
2013-03-26 01:51:00,28.5,25.7,30.38,NW,312,11.0,12.0,89,0.00,,,0.00,WeatherCatV1.02B3,2013-03-26 06:51:00,
2013-03-26 01:56:00,28.4,25.6,30.38,NW,319,5.0,9.0,89,0.00,,,0.00,WeatherCatV1.02B3,2013-03-26 06:56:00,
2013-03-26 02:01:00,28.4,25.6,30.39,WNW,289,3.0,8.0,89,0.00,,,0.00,WeatherCatV1.02B3,2013-03-26 07:01:00,
2013-03-26 02:06:00,28.3,25.5,30.38,NW,315,3.0,12.0,89,0.00,,,0.00,WeatherCatV1.02B3,2013-03-26 07:06:00,
2013-03-26 02:11:00,28.3,25.5,30.38,NNW,338,8.0,10.0,89,0.00,,,0.00,WeatherCatV1.02B3,2013-03-26 07:11:00,
2013-03-26 02:16:00,28.3,25.5,30.39,NNW,334,3.0,8.0,89,0.00,,,0.00,WeatherCatV1.02B3,2013-03-26 07:16:00,
2013-03-26 02:21:00,28.3,25.5,30.38,NNW,344,6.0,9.0,89,0.00,,,0.00,WeatherCatV1.02B3,2013-03-26 07:21:00,
2013-03-26 02:26:00,28.2,25.4,30.39,NNW,342,9.0,11.0,89,0.00,,,0.00,WeatherCatV1.02B3,2013-03-26 07:26:00,
2013-03-26 02:31:00,28.2,25.4,30.38,NNW,338,9.0,12.0,89,0.00,,,0.00,WeatherCatV1.02B3,2013-03-26 07:31:00,
2013-03-26 02:36:00,28.1,25.3,30.38,NNW,329,5.0,8.0,89,0.00,,,0.00,WeatherCatV1.02B3,2013-03-26 07:36:00,
2013-03-26 02:41:00,28.1,25.3,30.38,NW,306,4.0,9.0,89,0.00,,,0.00,WeatherCatV1.02B3,2013-03-26 07:41:00,
2013-03-26 02:46:00,28.1,25.3,30.39,NNW,346,9.0,11.0,89,0.00,,,0.00,WeatherCatV1.02B3,2013-03-26 07:46:00,
2013-03-26 02:51:00,28.1,25.0,30.39,NNW,336,6.0,12.0,88,0.00,,,0.00,WeatherCatV1.02B3,2013-03-26 07:51:00,
2013-03-26 02:56:00,28.0,25.2,30.39,NNW,332,9.0,15.0,89,0.00,,,0.00,WeatherCatV1.02B3,2013-03-26 07:56:00,
2013-03-26 03:01:00,28.0,25.2,30.38,NW,311,4.0,9.0,89,0.00,,,0.00,WeatherCatV1.02B3,2013-03-26 08:01:00,
2013-03-26 03:06:00,28.0,25.2,30.38,NNW,340,8.0,14.0,89,0.00,,,0.00,WeatherCatV1.02B3,2013-03-26 08:06:00,
2013-03-26 03:11:00,27.9,25.1,30.38,NNW,329,10.0,11.0,89,0.00,,,0.00,WeatherCatV1.02B3,2013-03-26 08:11:00,
2013-03-26 03:16:00,27.9,25.1,30.38,NNW,346,5.0,9.0,89,0.00,,,0.00,WeatherCatV1.02B3,2013-03-26 08:16:00,
2013-03-26 03:21:00,27.9,25.1,30.38,North,0,6.0,6.0,89,0.00,,,0.00,WeatherCatV1.02B3,2013-03-26 08:21:00,
2013-03-26 03:26:00,27.8,25.0,30.38,North,0,5.0,9.0,89,0.00,,,0.00,WeatherCatV1.02B3,2013-03-26 08:26:00,
2013-03-26 03:31:00,27.8,25.0,30.38,North,355,8.0,9.0,89,0.00,,,0.00,WeatherCatV1.02B3,2013-03-26 08:31:00,
2013-03-26 03:36:00,27.8,25.0,30.38,NNW,329,11.0,11.0,89,0.00,,,0.00,WeatherCatV1.02B3,2013-03-26 08:36:00,
2013-03-26 03:41:00,27.7,24.9,30.38,WNW,292,6.0,14.0,89,0.00,,,0.00,WeatherCatV1.02B3,2013-03-26 08:41:00,
2013-03-26 03:46:00,27.6,24.8,30.38,NW,313,5.0,13.0,89,0.00,,,0.00,WeatherCatV1.02B3,2013-03-26 08:46:00,
2013-03-26 03:51:00,27.6,24.8,30.38,NW,322,12.0,12.0,89,0.00,,,0.00,WeatherCatV1.02B3,2013-03-26 08:51:00,
2013-03-26 03:56:00,27.6,24.8,30.38,NNW,344,7.0,10.0,89,0.00,,,0.00,WeatherCatV1.02B3,2013-03-26 08:56:00,
2013-03-26 04:01:00,27.5,24.7,30.38,NNW,348,4.0,11.0,89,0.00,,,0.00,WeatherCatV1.02B3,2013-03-26 09:01:00,
2013-03-26 04:06:00,27.5,24.7,30.38,NNW,331,3.0,7.0,89,0.00,,,0.00,WeatherCatV1.02B3,2013-03-26 09:06:00,
2013-03-26 04:11:00,27.4,24.6,30.38,NNW,347,8.0,10.0,89,0.00,,,0.00,WeatherCatV1.02B3,2013-03-26 09:11:00,
2013-03-26 04:16:00,27.4,24.6,30.38,NW,315,6.0,10.0,89,0.00,,,0.00,WeatherCatV1.02B3,2013-03-26 09:16:00,
2013-03-26 04:21:00,27.2,24.4,30.38,North,0,6.0,7.0,89,0.00,,,0.00,WeatherCatV1.02B3,2013-03-26 09:21:00,
2013-03-26 04:26:00,27.1,24.3,30.38,NNW,335,12.0,12.0,89,0.00,,,0.00,WeatherCatV1.02B3,2013-03-26 09:26:00,
2013-03-26 04:31:00,26.9,24.1,30.38,NNW,327,11.0,11.0,89,0.00,,,0.00,WeatherCatV1.02B3,2013-03-26 09:31:00,
2013-03-26 04:36:00,26.8,24.0,30.38,NW,312,4.0,6.0,89,0.00,,,0.00,WeatherCatV1.02B3,2013-03-26 09:36:00,
2013-03-26 04:41:00,26.5,23.7,30.38,West,272,6.0,8.0,89,0.00,,,0.00,WeatherCatV1.02B3,2013-03-26 09:41:00,
2013-03-26 04:46:00,26.3,23.5,30.38,NW,325,6.0,9.0,89,0.00,,,0.00,WeatherCatV1.02B3,2013-03-26 09:46:00,
2013-03-26 04:51:00,26.1,23.3,30.38,NW,319,6.0,7.0,89,0.00,,,0.00,WeatherCatV1.02B3,2013-03-26 09:51:00,
2013-03-26 04:56:00,26.0,23.2,30.38,NW,324,2.0,3.0,89,0.00,,,0.00,WeatherCatV1.02B3,2013-03-26 09:56:00,
2013-03-26 05:01:00,25.8,23.0,30.38,NNW,327,3.0,4.0,89,0.00,,,0.00,WeatherCatV1.02B3,2013-03-26 10:01:00,
2013-03-26 05:06:00,25.6,23.1,30.38,NW,309,2.0,4.0,90,0.00,,,0.00,WeatherCatV1.02B3,2013-03-26 10:06:00,
2013-03-26 05:11:00,25.5,22.7,30.38,NW,311,1.0,4.0,89,0.00,,,0.00,WeatherCatV1.02B3,2013-03-26 10:11:00,
2013-03-26 05:16:00,25.4,22.9,30.38,NW,321,3.0,3.0,90,0.00,,,0.00,WeatherCatV1.02B3,2013-03-26 10:16:00,
2013-03-26 05:21:00,25.2,22.7,30.38,NW,316,0.0,3.0,90,0.00,,,0.00,WeatherCatV1.02B3,2013-03-26 10:21:00,
2013-03-26 05:26:00,25.2,22.7,30.39,West,272,1.0,2.0,90,0.00,,,0.00,WeatherCatV1.02B3,2013-03-26 10:26:00,
2013-03-26 05:31:00,25.0,22.5,30.39,West,272,0.0,1.0,90,0.00,,,0.00,WeatherCatV1.02B3,2013-03-26 10:31:00,
2013-03-26 05:36:00,24.8,22.3,30.38,West,272,1.0,4.0,90,0.00,,,0.00,WeatherCatV1.02B3,2013-03-26 10:36:00,
2013-03-26 05:41:00,24.7,22.2,30.39,WNW,302,0.0,4.0,90,0.00,,,0.00,WeatherCatV1.02B3,2013-03-26 10:41:00,
2013-03-26 05:46:00,24.5,22.0,30.39,WNW,303,0.0,4.0,90,0.00,,,0.00,WeatherCatV1.02B3,2013-03-26 10:46:00,
2013-03-26 05:51:00,24.3,21.8,30.39,WNW,303,1.0,3.0,90,0.00,,,0.00,WeatherCatV1.02B3,2013-03-26 10:51:00,
2013-03-26 05:56:00,24.2,21.7,30.39,NW,309,1.0,2.0,90,0.00,,,0.00,WeatherCatV1.02B3,2013-03-26 10:56:00,
2013-03-26 06:01:00,24.0,21.5,30.39,NW,309,1.0,1.0,90,0.00,,,0.00,WeatherCatV1.02B3,2013-03-26 11:01:00,
2013-03-26 06:06:00,23.9,21.4,30.39,NW,309,0.0,3.0,90,0.00,,,0.00,WeatherCatV1.02B3,2013-03-26 11:06:00,
2013-03-26 06:11:00,23.7,21.2,30.39,NW,309,2.0,2.0,90,0.00,,,0.00,WeatherCatV1.02B3,2013-03-26 11:11:00,
2013-03-26 06:16:00,23.5,21.0,30.39,NW,309,0.0,1.0,90,0.00,,,0.00,WeatherCatV1.02B3,2013-03-26 11:16:00,
2013-03-26 06:21:00,23.4,20.9,30.40,NW,309,0.0,4.0,90,0.00,,,0.00,WeatherCatV1.02B3,2013-03-26 11:21:00,
2013-03-26 06:26:00,23.2,20.7,30.40,NW,309,0.0,1.0,90,0.00,,,0.00,WeatherCatV1.02B3,2013-03-26 11:26:00,
2013-03-26 06:31:00,23.1,20.9,30.40,NW,309,0.0,2.0,91,0.00,,,0.00,WeatherCatV1.02B3,2013-03-26 11:31:00,
2013-03-26 06:36:00,23.0,20.8,30.40,NW,309,0.0,2.0,91,0.00,,,0.00,WeatherCatV1.02B3,2013-03-26 11:36:00,
2013-03-26 06:41:00,22.9,20.7,30.40,NW,309,0.0,0.0,91,0.00,,,0.00,WeatherCatV1.02B3,2013-03-26 11:41:00,
2013-03-26 06:46:00,22.7,20.5,30.41,NW,309,0.0,0.0,91,0.00,,,0.00,WeatherCatV1.02B3,2013-03-26 11:46:00,
2013-03-26 06:51:00,22.6,20.1,30.41,NW,309,0.0,0.0,90,0.00,,,0.00,WeatherCatV1.02B3,2013-03-26 11:51:00,
2013-03-26 06:56:00,22.5,20.0,30.41,NW,309,0.0,0.0,90,0.00,,,0.00,WeatherCatV1.02B3,2013-03-26 11:56:00,
2013-03-26 07:01:00,22.4,19.9,30.41,NW,309,0.0,0.0,90,0.00,,,0.00,WeatherCatV1.02B3,2013-03-26 12:01:00,
2013-03-26 07:06:00,22.2,19.7,30.41,NW,309,0.0,0.0,90,0.00,,,0.00,WeatherCatV1.02B3,2013-03-26 12:06:00,
2013-03-26 07:11:00,22.1,19.6,30.41,NW,309,0.0,0.0,90,0.00,,,0.00,WeatherCatV1.02B3,2013-03-26 12:11:00,
2013-03-26 07:16:00,21.9,19.4,30.42,NW,309,0.0,0.0,90,0.00,,,0.00,WeatherCatV1.02B3,2013-03-26 12:16:00,
2013-03-26 07:21:00,21.7,19.2,30.42,NW,309,0.0,0.0,90,0.00,,,0.00,WeatherCatV1.02B3,2013-03-26 12:21:00,
2013-03-26 07:26:00,21.6,19.1,30.42,NW,309,0.0,0.0,90,0.00,,,0.00,WeatherCatV1.02B3,2013-03-26 12:26:00,
2013-03-26 07:31:00,21.5,19.0,30.42,NW,309,0.0,1.0,90,0.00,,,0.00,WeatherCatV1.02B3,2013-03-26 12:31:00,
2013-03-26 07:36:00,21.4,18.9,30.43,NW,309,0.0,0.0,90,0.00,,,0.00,WeatherCatV1.02B3,2013-03-26 12:36:00,
2013-03-26 07:41:00,21.3,19.1,30.43,NW,309,1.0,1.0,91,0.00,,,0.00,WeatherCatV1.02B3,2013-03-26 12:41:00,
2013-03-26 07:46:00,21.4,19.4,30.43,NW,309,0.0,1.0,92,0.00,,,0.00,WeatherCatV1.02B3,2013-03-26 12:46:00,
2013-03-26 07:51:00,21.5,19.5,30.44,West,275,0.0,3.0,92,0.00,,,0.00,WeatherCatV1.02B3,2013-03-26 12:51:00,
2013-03-26 07:56:00,21.7,20.0,30.44,West,276,0.0,0.0,93,0.00,,,0.00,WeatherCatV1.02B3,2013-03-26 12:56:00,
2013-03-26 08:01:00,22.1,20.6,30.44,West,276,2.0,3.0,94,0.00,,,0.00,WeatherCatV1.02B3,2013-03-26 13:01:00,
2013-03-26 08:06:00,22.7,21.2,30.44,West,267,1.0,4.0,94,0.00,,,0.00,WeatherCatV1.02B3,2013-03-26 13:06:00,
2013-03-26 08:11:00,23.4,22.2,30.45,West,264,1.0,4.0,95,0.00,,,0.00,WeatherCatV1.02B3,2013-03-26 13:11:00,
2013-03-26 08:16:00,24.0,22.8,30.45,WNW,300,1.0,3.0,95,0.00,,,0.00,WeatherCatV1.02B3,2013-03-26 13:16:00,
2013-03-26 08:21:00,24.6,23.4,30.45,WNW,289,4.0,4.0,95,0.00,,,0.00,WeatherCatV1.02B3,2013-03-26 13:21:00,
2013-03-26 08:26:00,25.1,23.9,30.45,West,261,4.0,7.0,95,0.00,,,0.00,WeatherCatV1.02B3,2013-03-26 13:26:00,
2013-03-26 08:31:00,25.6,24.4,30.45,NW,316,4.0,8.0,95,0.00,,,0.00,WeatherCatV1.02B3,2013-03-26 13:31:00,
2013-03-26 08:36:00,25.8,24.3,30.45,NNW,334,4.0,6.0,94,0.00,,,0.00,WeatherCatV1.02B3,2013-03-26 13:36:00,
2013-03-26 08:41:00,26.0,24.3,30.46,West,277,4.0,5.0,93,0.00,,,0.00,WeatherCatV1.02B3,2013-03-26 13:41:00,
2013-03-26 08:46:00,26.2,24.5,30.46,WNW,291,3.0,5.0,93,0.00,,,0.00,WeatherCatV1.02B3,2013-03-26 13:46:00,
2013-03-26 08:51:00,26.5,24.5,30.46,NW,310,4.0,6.0,92,0.00,,,0.00,WeatherCatV1.02B3,2013-03-26 13:51:00,
2013-03-26 08:56:00,26.6,24.6,30.46,NW,310,3.0,9.0,92,0.00,,,0.00,WeatherCatV1.02B3,2013-03-26 13:56:00,
2013-03-26 09:01:00,26.7,24.4,30.46,West,271,4.0,7.0,91,0.00,,,0.00,WeatherCatV1.02B3,2013-03-26 14:01:00,
2013-03-26 09:06:00,26.7,24.4,30.47,West,271,1.0,5.0,91,0.00,,,0.00,WeatherCatV1.02B3,2013-03-26 14:06:00,
2013-03-26 09:11:00,26.8,24.5,30.47,NW,309,4.0,9.0,91,0.00,,,0.00,WeatherCatV1.02B3,2013-03-26 14:11:00,
2013-03-26 09:16:00,27.0,24.7,30.47,NW,317,2.0,5.0,91,0.00,,,0.00,WeatherCatV1.02B3,2013-03-26 14:16:00,
2013-03-26 09:21:00,27.1,24.8,30.47,West,277,2.0,5.0,91,0.00,,,0.00,WeatherCatV1.02B3,2013-03-26 14:21:00,
2013-03-26 09:26:00,27.2,24.7,30.47,NW,319,7.0,8.0,90,0.00,,,0.00,WeatherCatV1.02B3,2013-03-26 14:26:00,
2013-03-26 09:31:00,27.5,25.0,30.47,NNW,332,6.0,8.0,90,0.00,,,0.00,WeatherCatV1.02B3,2013-03-26 14:31:00,
2013-03-26 09:36:00,27.9,25.4,30.47,NNW,346,4.0,9.0,90,0.00,,,0.00,WeatherCatV1.02B3,2013-03-26 14:36:00,
2013-03-26 09:41:00,28.3,25.8,30.47,NNW,347,4.0,6.0,90,0.00,,,0.00,WeatherCatV1.02B3,2013-03-26 14:41:00,
2013-03-26 09:46:00,28.7,26.1,30.47,NW,309,4.0,8.0,90,0.00,,,0.00,WeatherCatV1.02B3,2013-03-26 14:46:00,
2013-03-26 09:51:00,29.3,26.5,30.47,NNW,346,5.0,9.0,89,0.00,,,0.00,WeatherCatV1.02B3,2013-03-26 14:51:00,
2013-03-26 09:56:00,29.6,26.5,30.47,NW,315,8.0,8.0,88,0.00,,,0.00,WeatherCatV1.02B3,2013-03-26 14:56:00,
2013-03-26 10:01:00,29.6,26.5,30.48,WSW,245,3.0,5.0,88,0.00,,,0.00,WeatherCatV1.02B3,2013-03-26 15:01:00,
2013-03-26 10:06:00,30.3,27.2,30.48,NNW,339,5.0,7.0,88,0.00,,,0.00,WeatherCatV1.02B3,2013-03-26 15:06:00,
2013-03-26 10:11:00,30.4,27.0,30.47,NW,315,3.0,7.0,87,0.00,,,0.00,WeatherCatV1.02B3,2013-03-26 15:11:00,
2013-03-26 10:16:00,30.9,27.5,30.48,NW,313,6.0,7.0,87,0.00,,,0.00,WeatherCatV1.02B3,2013-03-26 15:16:00,
2013-03-26 10:21:00,31.1,27.1,30.47,WNW,296,5.0,7.0,85,0.00,,,0.00,WeatherCatV1.02B3,2013-03-26 15:21:00,
2013-03-26 10:26:00,31.4,27.7,30.47,NNW,331,6.0,7.0,86,0.00,,,0.00,WeatherCatV1.02B3,2013-03-26 15:26:00,
2013-03-26 10:31:00,31.8,27.8,30.48,NNW,337,8.0,9.0,85,0.00,,,0.00,WeatherCatV1.02B3,2013-03-26 15:31:00,
2013-03-26 10:36:00,31.9,27.6,30.48,NW,319,5.0,6.0,84,0.00,,,0.00,WeatherCatV1.02B3,2013-03-26 15:36:00,
2013-03-26 10:41:00,31.8,27.5,30.48,NW,310,4.0,8.0,84,0.00,,,0.00,WeatherCatV1.02B3,2013-03-26 15:41:00,
2013-03-26 10:46:00,31.7,27.4,30.48,WNW,301,4.0,6.0,84,0.00,,,0.00,WeatherCatV1.02B3,2013-03-26 15:46:00,
2013-03-26 10:51:00,31.8,27.5,30.48,North,355,5.0,7.0,84,0.00,,,0.00,WeatherCatV1.02B3,2013-03-26 15:51:00,
2013-03-26 10:56:00,31.8,27.5,30.48,NW,317,3.0,7.0,84,0.00,,,0.00,WeatherCatV1.02B3,2013-03-26 15:56:00,
2013-03-26 11:01:00,32.0,28.0,30.48,North,355,4.0,5.0,85,0.00,,,0.00,WeatherCatV1.02B3,2013-03-26 16:01:00,
2013-03-26 11:06:00,32.5,28.5,30.48,NNW,338,5.0,8.0,85,0.00,,,0.00,WeatherCatV1.02B3,2013-03-26 16:06:00,
2013-03-26 11:11:00,32.8,28.8,30.48,NNW,344,6.0,9.0,85,0.00,,,0.00,WeatherCatV1.02B3,2013-03-26 16:11:00,
2013-03-26 11:16:00,33.2,28.9,30.48,NW,325,9.0,9.0,84,0.00,,,0.01,WeatherCatV1.02B3,2013-03-26 16:16:00,
2013-03-26 11:21:00,33.8,29.5,30.48,WSW,250,3.0,6.0,84,0.00,,,0.01,WeatherCatV1.02B3,2013-03-26 16:21:00,
2013-03-26 11:26:00,34.5,29.9,30.48,NNW,332,6.0,7.0,83,0.00,,,0.01,WeatherCatV1.02B3,2013-03-26 16:26:00,
2013-03-26 11:31:00,34.3,29.1,30.47,NNW,334,9.0,9.0,81,0.00,,,0.01,WeatherCatV1.02B3,2013-03-26 16:31:00,
2013-03-26 11:36:00,34.4,29.5,30.47,NNW,333,5.0,9.0,82,0.00,,,0.01,WeatherCatV1.02B3,2013-03-26 16:36:00,
2013-03-26 11:41:00,34.7,29.5,30.48,NNE,14,7.0,8.0,81,0.00,,,0.01,WeatherCatV1.02B3,2013-03-26 16:41:00,
2013-03-26 11:46:00,34.5,29.0,30.48,NE,36,3.0,4.0,80,0.00,,,0.01,WeatherCatV1.02B3,2013-03-26 16:46:00,
2013-03-26 11:51:00,34.3,28.8,30.48,NW,313,5.0,6.0,80,0.00,,,0.01,WeatherCatV1.02B3,2013-03-26 16:51:00,
2013-03-26 11:56:00,34.0,27.9,30.48,NNW,329,2.0,9.0,78,0.00,,,0.01,WeatherCatV1.02B3,2013-03-26 16:56:00,
2013-03-26 12:01:00,34.1,28.6,30.48,North,5,3.0,7.0,80,0.00,,,0.01,WeatherCatV1.02B3,2013-03-26 17:01:00,
2013-03-26 12:06:00,34.4,28.3,30.48,NNW,336,5.0,8.0,78,0.00,,,0.01,WeatherCatV1.02B3,2013-03-26 17:06:00,
2013-03-26 12:11:00,34.3,27.9,30.48,WNW,282,4.0,7.0,77,0.00,,,0.01,WeatherCatV1.02B3,2013-03-26 17:11:00,
2013-03-26 12:16:00,34.7,27.9,30.48,NW,317,6.0,6.0,76,0.00,,,0.01,WeatherCatV1.02B3,2013-03-26 17:16:00,
2013-03-26 12:21:00,34.9,27.8,30.48,WNW,302,3.0,8.0,75,0.00,,,0.01,WeatherCatV1.02B3,2013-03-26 17:21:00,
2013-03-26 12:26:00,35.1,28.0,30.48,West,267,2.0,4.0,75,0.00,,,0.01,WeatherCatV1.02B3,2013-03-26 17:26:00,
2013-03-26 12:31:00,35.7,28.9,30.47,North,355,2.0,4.0,76,0.00,,,0.01,WeatherCatV1.02B3,2013-03-26 17:31:00,
2013-03-26 12:36:00,36.5,29.0,30.47,NW,321,7.0,8.0,74,0.00,,,0.01,WeatherCatV1.02B3,2013-03-26 17:36:00,
2013-03-26 12:41:00,36.5,28.3,30.47,NW,309,4.0,5.0,72,0.00,,,0.01,WeatherCatV1.02B3,2013-03-26 17:41:00,
2013-03-26 12:46:00,36.3,28.8,30.47,WNW,298,2.0,6.0,74,0.00,,,0.01,WeatherCatV1.02B3,2013-03-26 17:46:00,
2013-03-26 12:51:00,36.4,28.9,30.47,NW,321,4.0,7.0,74,0.00,,,0.01,WeatherCatV1.02B3,2013-03-26 17:51:00,
2013-03-26 12:56:00,36.2,28.4,30.47,NNW,339,2.0,8.0,73,0.00,,,0.01,WeatherCatV1.02B3,2013-03-26 17:56:00,
2013-03-26 13:01:00,36.2,27.0,30.47,WNW,294,1.0,4.0,69,0.00,,,0.01,WeatherCatV1.02B3,2013-03-26 18:01:00,
2013-03-26 13:06:00,36.4,28.6,30.46,NW,318,5.0,8.0,73,0.00,,,0.01,WeatherCatV1.02B3,2013-03-26 18:06:00,
2013-03-26 13:11:00,36.3,27.8,30.46,West,273,3.0,7.0,71,0.00,,,0.01,WeatherCatV1.02B3,2013-03-26 18:11:00,
2013-03-26 13:16:00,36.4,28.6,30.47,NW,306,5.0,11.0,73,0.00,,,0.01,WeatherCatV1.02B3,2013-03-26 18:16:00,
2013-03-26 13:21:00,36.5,28.7,30.47,North,11,7.0,8.0,73,0.00,,,0.01,WeatherCatV1.02B3,2013-03-26 18:21:00,
2013-03-26 13:26:00,36.3,28.2,30.46,NNW,344,3.0,7.0,72,0.00,,,0.01,WeatherCatV1.02B3,2013-03-26 18:26:00,
2013-03-26 13:31:00,36.4,27.2,30.46,WNW,296,3.0,7.0,69,0.00,,,0.01,WeatherCatV1.02B3,2013-03-26 18:31:00,
2013-03-26 13:36:00,36.6,27.8,30.46,WSW,258,2.0,7.0,70,0.00,,,0.01,WeatherCatV1.02B3,2013-03-26 18:36:00,
2013-03-26 13:41:00,36.7,28.9,30.46,NNW,348,4.0,7.0,73,0.00,,,0.01,WeatherCatV1.02B3,2013-03-26 18:41:00,
2013-03-26 13:46:00,37.1,28.2,30.46,West,259,3.0,10.0,70,0.00,,,0.01,WeatherCatV1.02B3,2013-03-26 18:46:00,
2013-03-26 13:51:00,37.6,29.4,30.45,NNW,332,6.0,8.0,72,0.00,,,0.01,WeatherCatV1.02B3,2013-03-26 18:51:00,
2013-03-26 13:56:00,37.7,27.4,30.46,West,265,4.0,8.0,66,0.00,,,0.01,WeatherCatV1.02B3,2013-03-26 18:56:00,
2013-03-26 14:01:00,38.0,29.1,30.45,West,272,4.0,8.0,70,0.00,,,0.01,WeatherCatV1.02B3,2013-03-26 19:01:00,
2013-03-26 14:06:00,38.6,29.3,30.45,NW,306,7.0,10.0,69,0.00,,,0.01,WeatherCatV1.02B3,2013-03-26 19:06:00,
2013-03-26 14:11:00,38.9,29.6,30.45,West,272,2.0,6.0,69,0.00,,,0.01,WeatherCatV1.02B3,2013-03-26 19:11:00,
2013-03-26 14:16:00,39.3,28.9,30.45,NW,315,4.0,7.0,66,0.00,,,0.01,WeatherCatV1.02B3,2013-03-26 19:16:00,
2013-03-26 14:21:00,39.3,28.9,30.45,NNW,332,7.0,7.0,66,0.00,,,0.01,WeatherCatV1.02B3,2013-03-26 19:21:00,
2013-03-26 14:26:00,38.8,28.4,30.45,NW,317,4.0,4.0,66,0.00,,,0.01,WeatherCatV1.02B3,2013-03-26 19:26:00,
2013-03-26 14:31:00,38.6,27.9,30.45,WNW,293,5.0,6.0,65,0.00,,,0.01,WeatherCatV1.02B3,2013-03-26 19:31:00,
2013-03-26 14:36:00,38.6,29.0,30.45,NW,318,8.0,8.0,68,0.00,,,0.01,WeatherCatV1.02B3,2013-03-26 19:36:00,
2013-03-26 14:41:00,38.4,28.0,30.46,SW,232,5.0,7.0,66,0.00,,,0.01,WeatherCatV1.02B3,2013-03-26 19:41:00,
2013-03-26 14:46:00,38.2,27.9,30.45,WNW,295,3.0,7.0,66,0.00,,,0.01,WeatherCatV1.02B3,2013-03-26 19:46:00,
2013-03-26 14:51:00,38.1,28.8,30.45,WNW,302,4.0,10.0,69,0.00,,,0.01,WeatherCatV1.02B3,2013-03-26 19:51:00,
2013-03-26 14:56:00,37.9,29.0,30.45,WNW,291,7.0,10.0,70,0.00,,,0.01,WeatherCatV1.02B3,2013-03-26 19:56:00,
2013-03-26 15:01:00,37.9,27.9,30.45,NW,306,6.0,10.0,67,0.00,,,0.01,WeatherCatV1.02B3,2013-03-26 20:01:00,
2013-03-26 15:06:00,37.7,28.1,30.45,NNW,329,8.0,9.0,68,0.00,,,0.01,WeatherCatV1.02B3,2013-03-26 20:06:00,
2013-03-26 15:11:00,37.5,27.9,30.45,West,269,4.0,7.0,68,0.00,,,0.01,WeatherCatV1.02B3,2013-03-26 20:11:00,
2013-03-26 15:16:00,37.9,28.7,30.44,WNW,298,6.0,7.0,69,0.00,,,0.01,WeatherCatV1.02B3,2013-03-26 20:16:00,
2013-03-26 15:21:00,38.1,27.8,30.44,WSW,256,4.0,7.0,66,0.00,,,0.01,WeatherCatV1.02B3,2013-03-26 20:21:00,
2013-03-26 15:26:00,38.5,27.4,30.44,WSW,240,1.0,7.0,64,0.00,,,0.01,WeatherCatV1.02B3,2013-03-26 20:26:00,
2013-03-26 15:31:00,38.5,26.6,30.44,North,355,4.0,8.0,62,0.00,,,0.01,WeatherCatV1.02B3,2013-03-26 20:31:00,
2013-03-26 15:36:00,38.4,29.1,30.44,NNW,338,6.0,7.0,69,0.00,,,0.02,WeatherCatV1.02B3,2013-03-26 20:36:00,
2013-03-26 15:41:00,38.3,27.6,30.44,North,10,5.0,6.0,65,0.00,,,0.02,WeatherCatV1.02B3,2013-03-26 20:41:00,
2013-03-26 15:46:00,37.9,27.9,30.43,NNW,348,4.0,5.0,67,0.00,,,0.02,WeatherCatV1.02B3,2013-03-26 20:46:00,
2013-03-26 15:51:00,37.9,27.2,30.43,South,171,0.0,4.0,65,0.00,,,0.02,WeatherCatV1.02B3,2013-03-26 20:51:00,
2013-03-26 15:56:00,38.7,27.6,30.43,NNW,327,4.0,7.0,64,0.00,,,0.02,WeatherCatV1.02B3,2013-03-26 20:56:00,
2013-03-26 16:01:00,39.2,28.1,30.42,NW,317,4.0,9.0,64,0.00,,,0.02,WeatherCatV1.02B3,2013-03-26 21:01:00,
2013-03-26 16:06:00,39.4,27.5,30.43,West,268,7.0,8.0,62,0.00,,,0.02,WeatherCatV1.02B3,2013-03-26 21:06:00,
2013-03-26 16:11:00,39.8,27.5,30.42,WNW,294,2.0,3.0,61,0.00,,,0.02,WeatherCatV1.02B3,2013-03-26 21:11:00,
2013-03-26 16:16:00,40.1,28.1,30.42,North,11,5.0,8.0,62,0.00,,,0.02,WeatherCatV1.02B3,2013-03-26 21:16:00,
2013-03-26 16:21:00,40.0,28.0,30.42,NNW,332,3.0,5.0,62,0.00,,,0.02,WeatherCatV1.02B3,2013-03-26 21:21:00,
2013-03-26 16:26:00,40.0,28.4,30.42,West,270,2.0,9.0,63,0.00,,,0.02,WeatherCatV1.02B3,2013-03-26 21:26:00,
2013-03-26 16:31:00,39.7,27.8,30.42,SW,227,4.0,5.0,62,0.00,,,0.02,WeatherCatV1.02B3,2013-03-26 21:31:00,
2013-03-26 16:36:00,39.7,27.4,30.41,NNW,340,5.0,6.0,61,0.00,,,0.02,WeatherCatV1.02B3,2013-03-26 21:36:00,
2013-03-26 16:41:00,39.9,27.6,30.42,West,276,2.0,3.0,61,0.00,,,0.02,WeatherCatV1.02B3,2013-03-26 21:41:00,
2013-03-26 16:46:00,40.1,26.1,30.42,NW,323,4.0,6.0,57,0.00,,,0.02,WeatherCatV1.02B3,2013-03-26 21:46:00,
2013-03-26 16:51:00,40.4,28.0,30.42,North,355,4.0,6.0,61,0.00,,,0.02,WeatherCatV1.02B3,2013-03-26 21:51:00,
2013-03-26 16:56:00,40.5,27.3,30.41,West,263,4.0,7.0,59,0.00,,,0.02,WeatherCatV1.02B3,2013-03-26 21:56:00,
2013-03-26 17:01:00,40.5,26.9,30.41,North,351,4.0,6.0,58,0.00,,,0.02,WeatherCatV1.02B3,2013-03-26 22:01:00,
2013-03-26 17:06:00,40.3,27.1,30.41,West,280,2.0,5.0,59,0.00,,,0.02,WeatherCatV1.02B3,2013-03-26 22:06:00,
2013-03-26 17:11:00,40.4,27.2,30.41,NW,322,4.0,4.0,59,0.00,,,0.02,WeatherCatV1.02B3,2013-03-26 22:11:00,
2013-03-26 17:16:00,40.3,26.3,30.41,NNW,336,0.0,4.0,57,0.00,,,0.02,WeatherCatV1.02B3,2013-03-26 22:16:00,
2013-03-26 17:21:00,40.1,26.1,30.41,NNW,333,2.0,6.0,57,0.00,,,0.02,WeatherCatV1.02B3,2013-03-26 22:21:00,
2013-03-26 17:26:00,39.7,26.1,30.41,North,355,4.0,6.0,58,0.00,,,0.02,WeatherCatV1.02B3,2013-03-26 22:26:00,
2013-03-26 17:31:00,39.3,26.6,30.41,WSW,250,6.0,6.0,60,0.00,,,0.02,WeatherCatV1.02B3,2013-03-26 22:31:00,
2013-03-26 17:36:00,39.2,26.1,30.40,NW,311,6.0,9.0,59,0.00,,,0.02,WeatherCatV1.02B3,2013-03-26 22:36:00,
2013-03-26 17:41:00,39.2,26.1,30.41,NW,319,2.0,7.0,59,0.00,,,0.03,WeatherCatV1.02B3,2013-03-26 22:41:00,
2013-03-26 17:46:00,39.1,26.4,30.40,WNW,294,3.0,5.0,60,0.00,,,0.03,WeatherCatV1.02B3,2013-03-26 22:46:00,
2013-03-26 17:51:00,39.2,25.7,30.40,NW,312,2.0,4.0,58,0.00,,,0.03,WeatherCatV1.02B3,2013-03-26 22:51:00,
2013-03-26 17:56:00,39.0,25.5,30.40,North,350,4.0,5.0,58,0.00,,,0.03,WeatherCatV1.02B3,2013-03-26 22:56:00,
2013-03-26 18:01:00,38.8,25.3,30.40,NW,323,0.0,3.0,58,0.00,,,0.03,WeatherCatV1.02B3,2013-03-26 23:01:00,
2013-03-26 18:06:00,38.8,25.3,30.40,NNE,17,3.0,5.0,58,0.00,,,0.03,WeatherCatV1.02B3,2013-03-26 23:06:00,
2013-03-26 18:11:00,38.8,25.7,30.40,North,5,1.0,1.0,59,0.00,,,0.03,WeatherCatV1.02B3,2013-03-26 23:11:00,
2013-03-26 18:16:00,38.8,25.7,30.40,North,11,0.0,2.0,59,0.00,,,0.03,WeatherCatV1.02B3,2013-03-26 23:16:00,
2013-03-26 18:21:00,38.9,26.2,30.40,North,11,0.0,0.0,60,0.00,,,0.03,WeatherCatV1.02B3,2013-03-26 23:21:00,
2013-03-26 18:26:00,38.9,25.4,30.40,NW,325,1.0,4.0,58,0.00,,,0.03,WeatherCatV1.02B3,2013-03-26 23:26:00,
2013-03-26 18:31:00,38.9,25.8,30.40,West,280,2.0,2.0,59,0.00,,,0.03,WeatherCatV1.02B3,2013-03-26 23:31:00,
2013-03-26 18:36:00,38.8,25.7,30.40,West,275,0.0,3.0,59,0.00,,,0.03,WeatherCatV1.02B3,2013-03-26 23:36:00,
2013-03-26 18:41:00,38.7,25.2,30.40,NW,307,2.0,3.0,58,0.00,,,0.03,WeatherCatV1.02B3,2013-03-26 23:41:00,
2013-03-26 18:46:00,38.4,25.3,30.40,NW,307,0.0,0.0,59,0.00,,,0.03,WeatherCatV1.02B3,2013-03-26 23:46:00,
2013-03-26 18:51:00,38.1,25.1,30.40,NNW,333,1.0,2.0,59,0.00,,,0.03,WeatherCatV1.02B3,2013-03-26 23:51:00,
2013-03-26 18:56:00,37.7,25.5,30.39,North,355,2.0,2.0,61,0.00,,,0.03,WeatherCatV1.02B3,2013-03-26 23:56:00,
2013-03-26 19:01:00,37.4,25.2,30.40,NNW,346,0.0,1.0,61,0.00,,,0.03,WeatherCatV1.02B3,2013-03-27 00:01:00,
2013-03-26 19:06:00,37.2,25.8,30.40,NNW,346,0.0,0.0,63,0.00,,,0.03,WeatherCatV1.02B3,2013-03-27 00:06:00,
2013-03-26 19:11:00,37.1,25.7,30.40,NNW,346,0.0,0.0,63,0.00,,,0.03,WeatherCatV1.02B3,2013-03-27 00:11:00,
2013-03-26 19:16:00,36.7,24.9,30.40,NNW,346,0.0,0.0,62,0.00,,,0.03,WeatherCatV1.02B3,2013-03-27 00:16:00,
2013-03-26 19:21:00,36.4,25.0,30.40,NNW,346,0.0,0.0,63,0.00,,,0.03,WeatherCatV1.02B3,2013-03-27 00:21:00,
2013-03-26 19:26:00,36.1,24.7,30.40,NNW,346,0.0,0.0,63,0.00,,,0.03,WeatherCatV1.02B3,2013-03-27 00:26:00,
2013-03-26 19:31:00,35.8,24.5,30.39,NNW,346,0.0,0.0,63,0.00,,,0.03,WeatherCatV1.02B3,2013-03-27 00:31:00,
2013-03-26 19:36:00,35.5,24.5,30.40,NNW,346,0.0,0.0,64,0.00,,,0.03,WeatherCatV1.02B3,2013-03-27 00:36:00,
2013-03-26 19:41:00,35.2,25.4,30.40,NNW,346,0.0,0.0,67,0.00,,,0.03,WeatherCatV1.02B3,2013-03-27 00:41:00,
2013-03-26 19:46:00,34.9,24.3,30.40,NNW,346,0.0,0.0,65,0.00,,,0.03,WeatherCatV1.02B3,2013-03-27 00:46:00,
2013-03-26 19:51:00,34.4,24.2,30.40,NNW,346,0.0,0.0,66,0.00,,,0.03,WeatherCatV1.02B3,2013-03-27 00:51:00,
2013-03-26 19:56:00,33.9,24.5,30.39,NNW,346,0.0,0.0,68,0.00,,,0.03,WeatherCatV1.02B3,2013-03-27 00:56:00,
2013-03-26 20:01:00,33.4,25.7,30.40,NNW,346,0.0,0.0,73,0.00,,,0.03,WeatherCatV1.02B3,2013-03-27 01:01:00,
2013-03-26 20:06:00,32.6,24.9,30.40,NNW,346,0.0,0.0,73,0.00,,,0.03,WeatherCatV1.02B3,2013-03-27 01:06:00,
2013-03-26 20:11:00,32.0,24.7,30.40,NNW,346,0.0,0.0,74,0.00,,,0.03,WeatherCatV1.02B3,2013-03-27 01:11:00,
2013-03-26 20:16:00,31.6,24.6,30.40,NNW,346,0.0,0.0,75,0.00,,,0.03,WeatherCatV1.02B3,2013-03-27 01:16:00,
2013-03-26 20:21:00,31.3,24.6,30.40,NNW,346,0.0,0.0,76,0.00,,,0.03,WeatherCatV1.02B3,2013-03-27 01:21:00,
2013-03-26 20:26:00,30.9,24.6,30.40,NNW,346,0.0,0.0,77,0.00,,,0.03,WeatherCatV1.02B3,2013-03-27 01:26:00,
2013-03-26 20:31:00,30.6,24.3,30.40,NNW,346,0.0,0.0,77,0.00,,,0.03,WeatherCatV1.02B3,2013-03-27 01:31:00,
2013-03-26 20:37:00,30.1,24.1,30.40,NNW,346,0.0,0.0,78,0.00,,,0.03,WeatherCatV1.02B3,2013-03-27 01:37:00,
2013-03-26 20:42:00,29.6,24.2,30.40,NNW,346,0.0,0.0,80,0.00,,,0.03,WeatherCatV1.02B3,2013-03-27 01:42:00,
2013-03-26 20:47:00,29.3,23.9,30.40,NNW,346,0.0,0.0,80,0.00,,,0.03,WeatherCatV1.02B3,2013-03-27 01:47:00,
2013-03-26 20:52:00,29.0,23.9,30.40,NNW,346,0.0,0.0,81,0.00,,,0.03,WeatherCatV1.02B3,2013-03-27 01:52:00,
2013-03-26 20:57:00,28.7,23.9,30.40,NNW,346,0.0,0.0,82,0.00,,,0.03,WeatherCatV1.02B3,2013-03-27 01:57:00,
2013-03-26 21:02:00,28.5,23.7,30.40,NNW,346,0.0,0.0,82,0.00,,,0.03,WeatherCatV1.02B3,2013-03-27 02:02:00,
2013-03-26 21:07:00,28.3,23.5,30.40,NNW,346,0.0,0.0,82,0.00,,,0.03,WeatherCatV1.02B3,2013-03-27 02:07:00,
2013-03-26 21:12:00,28.1,23.6,30.40,NNW,346,0.0,0.0,83,0.00,,,0.03,WeatherCatV1.02B3,2013-03-27 02:12:00,
2013-03-26 21:17:00,27.8,23.6,30.40,NNW,346,0.0,0.0,84,0.00,,,0.03,WeatherCatV1.02B3,2013-03-27 02:17:00,
2013-03-26 21:22:00,27.5,23.3,30.40,NNW,346,0.0,0.0,84,0.00,,,0.03,WeatherCatV1.02B3,2013-03-27 02:22:00,
2013-03-26 21:27:00,27.3,23.4,30.40,NNW,346,0.0,0.0,85,0.00,,,0.03,WeatherCatV1.02B3,2013-03-27 02:27:00,
2013-03-26 21:32:00,27.0,23.1,30.40,NNW,346,0.0,0.0,85,0.00,,,0.03,WeatherCatV1.02B3,2013-03-27 02:32:00,
2013-03-26 21:37:00,26.7,23.1,30.40,NNW,346,2.0,2.0,86,0.00,,,0.03,WeatherCatV1.02B3,2013-03-27 02:37:00,
2013-03-26 21:42:00,26.5,22.9,30.40,NNE,30,0.0,2.0,86,0.00,,,0.03,WeatherCatV1.02B3,2013-03-27 02:42:00,
2013-03-26 21:47:00,26.2,22.6,30.40,NNE,30,0.0,0.0,86,0.00,,,0.03,WeatherCatV1.02B3,2013-03-27 02:47:00,
2013-03-26 21:52:00,26.1,22.5,30.40,NNE,30,0.0,0.0,86,0.00,,,0.03,WeatherCatV1.02B3,2013-03-27 02:52:00,
2013-03-26 21:57:00,26.0,22.4,30.40,NNE,30,0.0,0.0,86,0.00,,,0.03,WeatherCatV1.02B3,2013-03-27 02:57:00,
2013-03-26 22:02:00,25.8,22.5,30.40,NNE,30,0.0,0.0,87,0.00,,,0.03,WeatherCatV1.02B3,2013-03-27 03:02:00,
2013-03-26 22:07:00,25.7,22.6,30.40,NNE,30,0.0,0.0,88,0.00,,,0.03,WeatherCatV1.02B3,2013-03-27 03:07:00,
2013-03-26 22:12:00,25.6,22.8,30.40,NNE,30,0.0,0.0,89,0.00,,,0.03,WeatherCatV1.02B3,2013-03-27 03:12:00,
2013-03-26 22:17:00,25.5,22.5,30.40,NNE,30,0.0,0.0,88,0.00,,,0.03,WeatherCatV1.02B3,2013-03-27 03:17:00,
2013-03-26 22:22:00,25.4,22.6,30.41,NNE,30,0.0,0.0,89,0.00,,,0.03,WeatherCatV1.02B3,2013-03-27 03:22:00,
2013-03-26 22:27:00,25.3,22.5,30.41,NNE,30,0.0,0.0,89,0.00,,,0.03,WeatherCatV1.02B3,2013-03-27 03:27:00,
2013-03-26 22:32:00,25.1,22.3,30.41,NNE,30,0.0,0.0,89,0.00,,,0.03,WeatherCatV1.02B3,2013-03-27 03:32:00,
2013-03-26 22:37:00,25.0,22.2,30.41,NNE,30,0.0,0.0,89,0.00,,,0.03,WeatherCatV1.02B3,2013-03-27 03:37:00,
2013-03-26 22:42:00,24.9,22.4,30.40,NNE,30,0.0,0.0,90,0.00,,,0.03,WeatherCatV1.02B3,2013-03-27 03:42:00,
2013-03-26 22:47:00,24.8,22.3,30.41,NNE,30,0.0,0.0,90,0.00,,,0.03,WeatherCatV1.02B3,2013-03-27 03:47:00,
2013-03-26 22:52:00,24.8,22.0,30.41,NNE,30,0.0,0.0,89,0.00,,,0.03,WeatherCatV1.02B3,2013-03-27 03:52:00,
2013-03-26 22:57:00,24.6,21.8,30.41,NNE,30,0.0,0.0,89,0.00,,,0.03,WeatherCatV1.02B3,2013-03-27 03:57:00,
2013-03-26 23:00:00,24.5,22.0,30.41,NNE,30,0.0,0.0,90,0.00,,,0.03,WeatherCatV1.02B3,2013-03-27 04:00:00,
2013-03-26 23:01:00,24.5,22.0,30.41,NNE,30,0.0,0.0,90,0.00,,,0.03,WeatherCatV1.02B3,2013-03-27 04:01:00,
2013-03-26 23:06:00,24.3,21.8,30.41,NNE,30,0.0,0.0,90,0.00,,,0.03,WeatherCatV1.02B3,2013-03-27 04:06:00,
2013-03-26 23:11:00,24.2,21.7,30.41,NNE,30,0.0,0.0,90,0.00,,,0.03,WeatherCatV1.02B3,2013-03-27 04:11:00,
2013-03-26 23:16:00,24.1,21.9,30.41,NNE,30,0.0,0.0,91,0.00,,,0.03,WeatherCatV1.02B3,2013-03-27 04:16:00,
2013-03-26 23:21:00,24.0,21.8,30.41,NNE,30,0.0,0.0,91,0.00,,,0.03,WeatherCatV1.02B3,2013-03-27 04:21:00,
2013-03-26 23:26:00,23.9,21.4,30.41,NNE,30,0.0,0.0,90,0.00,,,0.03,WeatherCatV1.02B3,2013-03-27 04:26:00,
2013-03-26 23:31:00,23.8,21.6,30.41,NNE,30,0.0,0.0,91,0.00,,,0.03,WeatherCatV1.02B3,2013-03-27 04:31:00,
2013-03-26 23:36:00,23.7,21.5,30.41,NNE,30,0.0,0.0,91,0.00,,,0.03,WeatherCatV1.02B3,2013-03-27 04:36:00,
2013-03-26 23:41:00,23.6,21.4,30.41,NNE,30,0.0,0.0,91,0.00,,,0.03,WeatherCatV1.02B3,2013-03-27 04:41:00,
2013-03-26 23:46:00,23.5,21.3,30.41,NNE,30,0.0,0.0,91,0.00,,,0.03,WeatherCatV1.02B3,2013-03-27 04:46:00,
2013-03-26 23:51:00,23.4,21.2,30.41,NNE,30,0.0,0.0,91,0.00,,,0.03,WeatherCatV1.02B3,2013-03-27 04:51:00,
2013-03-26 23:56:00,23.3,21.1,30.41,NNE,30,0.0,0.0,91,0.00,,,0.03,WeatherCatV1.02B3,2013-03-27 04:56:00,